Airport ICAO


07:25 UTC

10°C

Clear skies


An affordable passengers' Moving Map for your aircraft. Made for the iPad and the iPhone
More information here

LFPV Velizy


Villacoublay FRANCE   VFR CAVOK


METAR LFPV 200700Z AUTO 21003KT 180V240 CAVOK 10/08 Q1023 TEMPO 0400 BCFG 0h25min

TAF LFPV 200200Z 2003/2103 VRB02KT CAVOK PROB40 TEMPO 2003/2008 3000 BR PROB30 TEMPO 2003/2008 0400 BCFG SCT005 BECMG 2008/2010 25005KT SCT030 PROB40 TEMPO 2100/2103 3000 BR 5h25min





NOTAMS

OPEN